createdAt,value
2018-11-10T00:00:21.778Z,22.30
2018-11-10T00:02:50.776Z,22.30
2018-11-10T00:05:20.205Z,22.30
2018-11-10T00:07:48.729Z,22.30
2018-11-10T00:10:17.951Z,22.30
2018-11-10T00:12:47.358Z,22.30
2018-11-10T00:15:16.196Z,22.30
2018-11-10T00:17:44.712Z,22.30
2018-11-10T00:20:13.203Z,22.30
2018-11-10T00:22:42.529Z,22.30
2018-11-10T00:25:12.257Z,22.20
2018-11-10T00:27:41.492Z,22.20
2018-11-10T00:30:12.469Z,22.20
2018-11-10T00:32:41.148Z,22.30
2018-11-10T00:35:09.959Z,22.20
2018-11-10T00:37:38.630Z,22.20
2018-11-10T00:40:08.489Z,22.20
2018-11-10T00:42:36.986Z,22.20
2018-11-10T00:45:06.219Z,22.20
2018-11-10T00:47:34.698Z,22.20
2018-11-10T00:50:03.531Z,22.20
2018-11-10T00:52:31.971Z,22.20
2018-11-10T00:55:00.468Z,22.10
2018-11-10T00:57:28.913Z,22.20
2018-11-10T00:59:57.729Z,22.20
2018-11-10T01:02:26.298Z,22.10
2018-11-10T01:04:54.849Z,22.20
2018-11-10T01:07:23.326Z,22.20
2018-11-10T01:09:51.787Z,22.10
2018-11-10T01:12:20.365Z,22.10
2018-11-10T01:14:48.930Z,22.10
2018-11-10T01:17:17.533Z,22.10
2018-11-10T01:19:46.089Z,22.10
2018-11-10T01:22:14.552Z,22.10
2018-11-10T01:24:43.013Z,22.10
2018-11-10T01:27:11.475Z,22.10
2018-11-10T01:29:40.711Z,22.10
2018-11-10T01:32:09.206Z,22.10
2018-11-10T01:34:38.312Z,22.10
2018-11-10T01:37:06.690Z,22.10
2018-11-10T01:39:35.184Z,22.10
2018-11-10T01:42:03.715Z,22.10
2018-11-10T01:44:32.495Z,22.10
2018-11-10T01:47:00.926Z,22.10
2018-11-10T01:49:29.807Z,22.10
2018-11-10T01:51:58.335Z,22.10
2018-11-10T01:54:26.974Z,22.10
2018-11-10T01:56:55.417Z,22.10
2018-11-10T01:59:24.168Z,22.10
2018-11-10T02:01:52.772Z,22.00
2018-11-10T02:04:21.254Z,22.10
2018-11-10T02:06:49.834Z,22.00
2018-11-10T02:09:18.423Z,22.00
2018-11-10T02:11:46.861Z,22.00
2018-11-10T02:14:15.317Z,22.00
2018-11-10T02:16:43.838Z,22.00
2018-11-10T02:19:13.153Z,22.00
2018-11-10T02:21:41.687Z,22.00
2018-11-10T02:24:10.205Z,22.00
2018-11-10T02:26:39.155Z,22.00
2018-11-10T02:29:07.580Z,22.00
2018-11-10T02:31:36.005Z,22.00
2018-11-10T02:34:04.781Z,22.00
2018-11-10T02:36:33.317Z,22.00
2018-11-10T02:39:01.888Z,22.00
2018-11-10T02:41:30.354Z,22.00
2018-11-10T02:43:59.134Z,22.00
2018-11-10T02:46:27.574Z,22.00
2018-11-10T02:48:56.113Z,22.00
2018-11-10T02:51:24.705Z,22.00
2018-11-10T02:53:53.177Z,22.00
2018-11-10T02:56:21.742Z,22.00
2018-11-10T02:58:50.279Z,22.00
2018-11-10T03:01:18.764Z,21.90
2018-11-10T03:03:47.222Z,21.90
2018-11-10T03:06:15.649Z,21.90
2018-11-10T03:08:44.186Z,21.90
2018-11-10T03:11:12.698Z,22.00
2018-11-10T03:13:41.259Z,21.90
2018-11-10T03:16:09.759Z,21.90
2018-11-10T03:18:39.704Z,21.90
2018-11-10T03:21:08.155Z,21.90
2018-11-10T03:23:36.636Z,21.90
2018-11-10T03:26:05.194Z,21.90
2018-11-10T03:28:33.649Z,21.90
2018-11-10T03:31:02.232Z,21.90
2018-11-10T03:33:30.824Z,21.90
2018-11-10T03:35:59.425Z,21.90
2018-11-10T03:38:27.910Z,21.90
2018-11-10T03:40:56.433Z,21.90
2018-11-10T03:43:24.913Z,21.90
2018-11-10T03:45:53.396Z,21.90
2018-11-10T03:48:21.852Z,21.90
2018-11-10T03:50:50.548Z,21.90
2018-11-10T03:53:19.006Z,21.90
2018-11-10T03:55:47.803Z,21.90
2018-11-10T03:58:16.338Z,21.90
2018-11-10T04:00:44.786Z,21.90
2018-11-10T04:03:13.342Z,21.90
2018-11-10T04:05:41.866Z,21.90
2018-11-10T04:08:10.389Z,21.90
2018-11-10T04:10:39.375Z,21.90
2018-11-10T04:13:07.846Z,21.90
2018-11-10T04:15:36.475Z,21.80
2018-11-10T04:18:04.936Z,21.90
2018-11-10T04:20:33.382Z,21.90
2018-11-10T04:23:01.828Z,21.90
2018-11-10T04:25:30.313Z,21.80
2018-11-10T04:27:58.745Z,21.80
2018-11-10T04:30:27.227Z,21.80
2018-11-10T04:32:56.082Z,21.80
2018-11-10T04:35:24.709Z,21.80
2018-11-10T04:37:53.228Z,21.80
2018-11-10T04:40:21.682Z,21.80
2018-11-10T04:42:50.205Z,21.80
2018-11-10T04:45:18.862Z,21.80
2018-11-10T04:47:47.393Z,21.80
2018-11-10T04:50:16.054Z,21.80
2018-11-10T04:52:44.552Z,21.80
2018-11-10T04:55:13.831Z,21.80
2018-11-10T04:57:42.613Z,21.80
2018-11-10T05:00:13.495Z,21.80
2018-11-10T05:02:42.509Z,21.80
2018-11-10T05:05:11.134Z,21.80
2018-11-10T05:10:10.626Z,21.80
2018-11-10T05:14:18.150Z,21.80
2018-11-10T05:16:46.649Z,21.70
2018-11-10T05:19:16.016Z,21.80
2018-11-10T05:21:44.513Z,21.80
2018-11-10T05:24:13.017Z,21.70
2018-11-10T05:26:41.608Z,21.80
2018-11-10T05:29:10.133Z,21.80
2018-11-10T05:31:38.823Z,21.80
2018-11-10T05:34:07.497Z,21.80
2018-11-10T05:36:36.105Z,21.70
2018-11-10T05:39:06.363Z,21.80
2018-11-10T05:41:35.310Z,21.80
2018-11-10T05:44:03.995Z,21.80
2018-11-10T05:46:32.772Z,21.80
2018-11-10T05:49:01.273Z,21.70
2018-11-10T05:51:31.994Z,21.80
2018-11-10T05:54:00.563Z,21.80
2018-11-10T05:56:29.179Z,21.70
2018-11-10T05:58:58.644Z,21.70
2018-11-10T06:01:27.903Z,21.80
2018-11-10T06:03:56.784Z,21.80
2018-11-10T06:06:26.043Z,21.70
2018-11-10T06:08:54.582Z,21.70
2018-11-10T06:11:23.001Z,21.70
2018-11-10T06:16:15.050Z,21.70
2018-11-10T06:18:43.897Z,21.70
2018-11-10T06:21:12.436Z,21.70
2018-11-10T06:23:41.002Z,21.70
2018-11-10T06:26:09.475Z,21.70
2018-11-10T06:28:39.927Z,21.70
2018-11-10T06:31:10.005Z,21.70
2018-11-10T06:33:40.796Z,21.70
2018-11-10T06:36:09.823Z,21.70
2018-11-10T06:38:38.447Z,21.70
2018-11-10T06:41:07.384Z,21.70
2018-11-10T06:43:35.854Z,21.70
2018-11-10T06:46:04.489Z,21.70
2018-11-10T06:48:32.982Z,21.70
2018-11-10T06:51:01.396Z,21.70
2018-11-10T06:53:29.841Z,21.70
2018-11-10T06:55:58.318Z,21.70
2018-11-10T06:58:26.769Z,21.70
2018-11-10T07:00:55.234Z,21.70
2018-11-10T07:03:24.070Z,21.70
2018-11-10T07:05:52.515Z,21.70
2018-11-10T07:08:21.067Z,21.70
2018-11-10T07:10:49.481Z,21.70
2018-11-10T07:13:18.046Z,21.70
2018-11-10T07:15:46.741Z,21.70
2018-11-10T07:18:15.429Z,21.80
2018-11-10T07:20:43.958Z,21.80
2018-11-10T07:23:12.383Z,21.80
2018-11-10T07:25:40.833Z,21.80
2018-11-10T07:28:09.498Z,21.90
2018-11-10T07:30:38.209Z,21.90
2018-11-10T07:33:06.678Z,22.00
2018-11-10T07:35:35.057Z,22.00
2018-11-10T07:38:03.596Z,22.00
2018-11-10T07:40:32.073Z,22.10
2018-11-10T07:43:00.555Z,22.20
2018-11-10T07:45:28.980Z,22.20
2018-11-10T07:47:57.359Z,22.20
2018-11-10T07:50:25.746Z,22.20
2018-11-10T07:52:54.199Z,22.30
2018-11-10T07:55:22.660Z,22.30
2018-11-10T07:57:51.169Z,22.30
2018-11-10T08:00:19.769Z,22.30
2018-11-10T08:02:48.206Z,22.40
2018-11-10T08:05:17.081Z,22.40
2018-11-10T08:07:45.664Z,22.40
2018-11-10T08:10:15.002Z,22.40
2018-11-10T08:12:43.560Z,22.40
2018-11-10T08:15:14.230Z,22.40
2018-11-10T08:17:42.897Z,22.50
2018-11-10T08:20:11.904Z,22.50
2018-11-10T08:22:40.454Z,22.50
2018-11-10T08:25:10.673Z,22.50
2018-11-10T08:27:39.489Z,22.50
2018-11-10T08:30:09.741Z,22.50
2018-11-10T08:32:38.841Z,22.60
2018-11-10T08:35:08.208Z,22.60
2018-11-10T08:37:36.918Z,22.60
2018-11-10T08:40:06.123Z,22.60
2018-11-10T08:42:34.556Z,22.60
2018-11-10T08:45:02.979Z,22.60
2018-11-10T08:47:31.433Z,22.70
2018-11-10T08:50:00.143Z,22.70
2018-11-10T08:52:28.700Z,22.70
2018-11-10T08:54:57.121Z,22.70
2018-11-10T08:57:25.638Z,22.70
2018-11-10T08:59:54.129Z,22.70
2018-11-10T09:02:22.516Z,22.70
2018-11-10T09:04:50.994Z,22.70
2018-11-10T09:07:19.720Z,22.80
2018-11-10T09:09:48.222Z,22.80
2018-11-10T09:12:16.882Z,22.80
2018-11-10T09:14:45.425Z,22.80
2018-11-10T09:17:13.848Z,22.80
2018-11-10T09:19:42.261Z,22.80
2018-11-10T09:22:10.908Z,22.80
2018-11-10T09:24:39.713Z,22.80
2018-11-10T09:27:08.422Z,22.80
2018-11-10T09:29:36.978Z,22.80
2018-11-10T09:32:06.017Z,22.80
2018-11-10T09:34:34.454Z,22.90
2018-11-10T09:37:02.918Z,22.80
2018-11-10T09:39:31.396Z,22.90
2018-11-10T09:41:59.780Z,22.90
2018-11-10T09:44:28.223Z,22.90
2018-11-10T09:46:56.661Z,23.00
2018-11-10T09:49:25.306Z,22.90
2018-11-10T09:51:53.875Z,22.90
2018-11-10T09:54:22.405Z,22.90
2018-11-10T09:56:50.848Z,22.90
2018-11-10T09:59:19.356Z,22.90
2018-11-10T10:01:48.047Z,22.90
2018-11-10T10:04:16.196Z,23.00
2018-11-10T10:06:44.597Z,23.00
2018-11-10T10:09:13.087Z,23.00
2018-11-10T10:11:41.884Z,23.00
2018-11-10T10:14:11.129Z,23.00
2018-11-10T10:16:40.269Z,23.00
2018-11-10T10:19:09.221Z,23.00
2018-11-10T10:21:37.869Z,23.00
2018-11-10T10:24:06.966Z,23.10
2018-11-10T10:26:35.442Z,23.00
2018-11-10T10:29:03.974Z,23.10
2018-11-10T10:31:32.364Z,23.10
2018-11-10T10:34:00.818Z,23.10
2018-11-10T10:36:29.512Z,23.10
2018-11-10T10:38:59.299Z,23.10
2018-11-10T10:41:27.854Z,23.10
2018-11-10T10:43:56.641Z,23.10
2018-11-10T10:46:25.131Z,23.10
2018-11-10T10:48:53.726Z,23.10
2018-11-10T10:51:22.191Z,23.10
2018-11-10T10:55:36.737Z,23.20
2018-11-10T10:58:05.823Z,23.10
2018-11-10T11:00:39.756Z,23.10
2018-11-10T11:05:53.158Z,23.20
2018-11-10T11:08:21.985Z,23.20
2018-11-10T11:10:50.604Z,23.20
2018-11-10T11:13:19.196Z,23.20
2018-11-10T11:15:47.798Z,23.20
2018-11-10T11:18:16.238Z,23.20
2018-11-10T11:20:45.928Z,23.20
2018-11-10T11:23:14.960Z,23.20
2018-11-10T11:25:43.477Z,23.20
2018-11-10T11:28:12.117Z,23.20
2018-11-10T11:30:40.713Z,23.20
2018-11-10T11:33:09.132Z,23.20
2018-11-10T11:35:37.668Z,23.20
2018-11-10T11:38:06.355Z,23.30
2018-11-10T11:40:34.896Z,23.30
2018-11-10T11:43:03.320Z,23.30
2018-11-10T11:45:31.746Z,23.30
2018-11-10T11:48:00.177Z,23.30
2018-11-10T11:50:28.705Z,23.30
2018-11-10T11:52:57.211Z,23.30
2018-11-10T11:55:25.622Z,23.30
2018-11-10T11:57:54.162Z,23.30
2018-11-10T12:00:22.544Z,23.30
2018-11-10T12:02:51.149Z,23.30
2018-11-10T12:05:19.844Z,23.40
2018-11-10T12:07:48.280Z,23.40
2018-11-10T12:10:17.309Z,23.40
2018-11-10T12:12:45.769Z,23.40
2018-11-10T12:15:15.607Z,23.40
2018-11-10T12:17:44.179Z,23.40
2018-11-10T12:20:13.906Z,23.40
2018-11-10T12:22:42.704Z,23.40
2018-11-10T12:25:12.100Z,23.40
2018-11-10T12:27:41.375Z,23.40
2018-11-10T12:30:10.297Z,23.30
2018-11-10T12:32:39.361Z,23.30
2018-11-10T12:35:08.816Z,23.30
2018-11-10T12:37:37.737Z,23.30
2018-11-10T12:40:07.924Z,23.30
2018-11-10T12:42:37.891Z,23.30
2018-11-10T12:45:07.600Z,23.30
2018-11-10T12:47:36.959Z,23.20
2018-11-10T12:50:06.559Z,23.20
2018-11-10T12:52:35.262Z,23.20
2018-11-10T12:55:03.750Z,23.20
2018-11-10T12:57:32.130Z,23.20
2018-11-10T13:00:00.654Z,23.20
2018-11-10T13:02:29.082Z,23.20
2018-11-10T13:04:57.501Z,23.20
2018-11-10T13:07:25.954Z,23.10
2018-11-10T13:09:54.441Z,23.10
2018-11-10T13:12:22.849Z,23.10
2018-11-10T13:14:51.315Z,23.10
2018-11-10T13:17:19.854Z,23.10
2018-11-10T13:19:48.329Z,23.10
2018-11-10T13:22:16.831Z,23.10
2018-11-10T13:24:45.329Z,23.00
2018-11-10T13:27:13.868Z,23.00
2018-11-10T13:29:42.313Z,23.00
2018-11-10T13:32:10.778Z,23.00
2018-11-10T13:34:39.348Z,23.00
2018-11-10T13:37:07.857Z,23.00
2018-11-10T13:39:36.275Z,22.90
2018-11-10T13:42:05.084Z,22.90
2018-11-10T13:44:33.563Z,22.90
2018-11-10T13:47:02.172Z,22.90
2018-11-10T13:49:30.653Z,22.90
2018-11-10T13:51:59.342Z,22.80
2018-11-10T13:54:27.621Z,22.80
2018-11-10T13:56:56.062Z,22.80
2018-11-10T13:59:24.531Z,22.80
2018-11-10T14:01:53.056Z,22.80
2018-11-10T14:04:21.686Z,22.80
2018-11-10T14:06:50.160Z,22.80
2018-11-10T14:09:18.601Z,22.80
2018-11-10T14:11:47.071Z,22.80
2018-11-10T14:14:15.496Z,22.70
2018-11-10T14:16:44.910Z,22.70
2018-11-10T14:19:13.800Z,22.70
2018-11-10T14:21:42.290Z,22.70
2018-11-10T14:24:10.754Z,22.70
2018-11-10T14:26:40.090Z,22.70
2018-11-10T14:29:08.803Z,22.70
2018-11-10T14:31:38.389Z,22.70
2018-11-10T14:34:06.860Z,22.70
2018-11-10T14:36:35.580Z,22.60
2018-11-10T14:39:08.671Z,22.60
2018-11-10T14:41:37.196Z,22.70
2018-11-10T14:44:05.996Z,22.60
2018-11-10T14:46:34.789Z,22.60
2018-11-10T14:49:03.297Z,22.60
2018-11-10T14:51:31.774Z,22.60
2018-11-10T14:54:00.605Z,22.60
2018-11-10T14:56:29.129Z,22.60
2018-11-10T14:58:57.531Z,22.60
2018-11-10T15:01:26.110Z,22.60
2018-11-10T15:03:54.543Z,22.60
2018-11-10T15:06:23.063Z,22.60
2018-11-10T15:08:51.477Z,22.60
2018-11-10T15:11:19.880Z,22.60
2018-11-10T15:13:48.328Z,22.50
2018-11-10T15:16:16.806Z,22.50
2018-11-10T15:18:45.321Z,22.50
2018-11-10T15:21:13.868Z,22.50
2018-11-10T15:23:42.857Z,22.50
2018-11-10T15:26:11.362Z,22.50
2018-11-10T15:28:40.140Z,22.50
2018-11-10T15:31:09.449Z,22.50
2018-11-10T15:33:38.669Z,22.50
2018-11-10T15:36:07.248Z,22.50
2018-11-10T15:38:35.711Z,22.50
2018-11-10T15:41:04.218Z,22.50
2018-11-10T15:43:32.674Z,22.50
2018-11-10T15:46:01.223Z,22.40
2018-11-10T15:48:29.657Z,22.40
2018-11-10T15:50:58.148Z,22.50
2018-11-10T15:53:26.577Z,22.40
2018-11-10T15:55:55.056Z,22.40
2018-11-10T15:58:23.523Z,22.40
2018-11-10T16:00:52.150Z,22.40
2018-11-10T16:03:20.611Z,22.40
2018-11-10T16:05:49.390Z,22.40
2018-11-10T16:08:18.116Z,22.40
2018-11-10T16:10:46.596Z,22.40
2018-11-10T16:13:15.109Z,22.40
2018-11-10T16:15:43.905Z,22.40
2018-11-10T16:18:12.422Z,22.40
2018-11-10T16:20:41.090Z,22.40
2018-11-10T16:23:09.540Z,22.40
2018-11-10T16:25:38.474Z,22.40
2018-11-10T16:28:15.386Z,22.40
2018-11-10T16:30:46.033Z,22.30
2018-11-10T16:33:17.035Z,22.40
2018-11-10T16:35:47.969Z,22.30
2018-11-10T16:38:19.047Z,22.40
2018-11-10T16:40:49.168Z,22.40
2018-11-10T16:43:20.297Z,22.50
2018-11-10T16:45:50.092Z,22.60
2018-11-10T16:48:20.207Z,22.70
2018-11-10T16:50:49.910Z,22.80
2018-11-10T16:53:20.808Z,22.90
2018-11-10T16:55:49.333Z,23.00
2018-11-10T16:58:18.140Z,23.10
2018-11-10T17:00:46.804Z,22.40
2018-11-10T17:03:15.577Z,22.00
2018-11-10T17:05:46.372Z,21.70
2018-11-10T17:08:16.499Z,21.60
2018-11-10T17:10:46.783Z,21.50
2018-11-10T17:13:18.510Z,21.50
2018-11-10T17:15:47.165Z,21.40
2018-11-10T17:18:15.618Z,21.40
2018-11-10T17:20:44.256Z,21.40
2018-11-10T17:23:12.873Z,21.50
2018-11-10T17:25:41.289Z,21.50
2018-11-10T17:28:11.441Z,21.60
2018-11-10T17:30:41.217Z,21.60
2018-11-10T17:33:10.926Z,21.60
2018-11-10T17:35:39.616Z,21.70
2018-11-10T17:38:08.135Z,21.70
2018-11-10T17:40:36.612Z,21.70
2018-11-10T17:43:06.417Z,21.80
2018-11-10T17:45:35.051Z,21.80
2018-11-10T17:48:03.751Z,21.90
2018-11-10T17:50:33.560Z,21.90
2018-11-10T17:53:02.500Z,21.90
2018-11-10T17:55:32.523Z,22.00
2018-11-10T17:58:01.570Z,22.00
2018-11-10T18:00:30.172Z,22.00
2018-11-10T18:02:58.624Z,22.10
2018-11-10T18:05:27.058Z,22.10
2018-11-10T18:07:55.459Z,22.20
2018-11-10T18:10:23.937Z,22.20
2018-11-10T18:12:52.380Z,22.20
2018-11-10T18:15:21.115Z,22.20
2018-11-10T18:17:49.686Z,22.30
2018-11-10T18:20:18.563Z,22.30
2018-11-10T18:22:47.354Z,22.30
2018-11-10T18:25:16.085Z,22.40
2018-11-10T18:27:45.887Z,22.40
2018-11-10T18:30:15.334Z,22.40
2018-11-10T18:32:44.338Z,22.40
2018-11-10T18:35:14.214Z,22.50
2018-11-10T18:37:43.689Z,22.40
2018-11-10T18:40:12.933Z,22.50
2018-11-10T18:42:43.402Z,22.50
2018-11-10T18:45:13.334Z,22.50
2018-11-10T18:47:44.686Z,22.60
2018-11-10T18:50:15.027Z,22.50
2018-11-10T18:52:43.540Z,22.60
2018-11-10T18:55:13.094Z,22.60
2018-11-10T18:57:41.810Z,22.60
2018-11-10T19:00:12.245Z,22.60
2018-11-10T19:02:41.297Z,22.60
2018-11-10T19:05:11.288Z,22.60
2018-11-10T19:07:40.472Z,22.70
2018-11-10T19:10:10.772Z,22.70
2018-11-10T19:12:40.065Z,22.70
2018-11-10T19:15:11.244Z,22.70
2018-11-10T19:17:39.953Z,22.70
2018-11-10T19:20:09.206Z,22.80
2018-11-10T19:22:37.769Z,22.70
2018-11-10T19:25:07.865Z,22.80
2018-11-10T19:27:36.509Z,22.80
2018-11-10T19:30:06.513Z,22.80
2018-11-10T19:32:34.986Z,22.80
2018-11-10T19:35:03.532Z,22.80
2018-11-10T19:37:32.016Z,22.80
2018-11-10T19:40:00.451Z,22.80
2018-11-10T19:42:28.944Z,22.80
2018-11-10T19:44:57.548Z,22.80
2018-11-10T19:47:26.026Z,22.80
2018-11-10T19:49:54.560Z,22.80
2018-11-10T19:52:22.945Z,22.80
2018-11-10T19:54:51.441Z,22.80
2018-11-10T19:57:19.912Z,22.90
2018-11-10T19:59:48.412Z,22.90
2018-11-10T20:02:17.005Z,22.80
2018-11-10T20:04:45.554Z,22.90
2018-11-10T20:07:16.292Z,22.90
2018-11-10T20:09:44.721Z,22.90
2018-11-10T20:12:13.386Z,22.90
2018-11-10T20:14:41.782Z,22.90
2018-11-10T20:17:10.228Z,22.90
2018-11-10T20:19:39.250Z,23.00
2018-11-10T20:22:07.661Z,23.00
2018-11-10T20:24:36.137Z,23.00
2018-11-10T20:27:04.721Z,23.10
2018-11-10T20:29:35.685Z,23.10
2018-11-10T20:32:04.125Z,23.10
2018-11-10T20:34:32.720Z,23.20
2018-11-10T20:37:02.536Z,23.20
2018-11-10T20:39:31.034Z,23.20
2018-11-10T20:41:59.426Z,23.20
2018-11-10T20:44:27.905Z,23.20
2018-11-10T20:46:56.430Z,23.20
2018-11-10T20:49:24.862Z,23.20
2018-11-10T20:51:53.417Z,23.20
2018-11-10T20:54:21.851Z,23.30
2018-11-10T20:56:50.284Z,23.30
2018-11-10T20:59:18.681Z,23.30
2018-11-10T21:01:47.098Z,23.30
2018-11-10T21:04:15.585Z,23.30
2018-11-10T21:06:44.010Z,23.30
2018-11-10T21:09:13.229Z,23.30
2018-11-10T21:11:41.730Z,23.30
2018-11-10T21:14:10.840Z,23.30
2018-11-10T21:16:40.077Z,23.40
2018-11-10T21:19:08.474Z,23.40
2018-11-10T21:21:36.990Z,23.40
2018-11-10T21:24:05.913Z,23.40
2018-11-10T21:26:34.312Z,23.40
2018-11-10T21:29:02.910Z,23.40
2018-11-10T21:31:31.409Z,23.40
2018-11-10T21:34:00.117Z,23.40
2018-11-10T21:36:28.579Z,23.40
2018-11-10T21:38:57.081Z,23.40
2018-11-10T21:41:25.613Z,23.40
2018-11-10T21:43:54.080Z,23.40
2018-11-10T21:46:22.636Z,23.40
2018-11-10T21:48:51.060Z,23.40
2018-11-10T21:51:19.553Z,23.40
2018-11-10T21:53:48.124Z,23.40
2018-11-10T21:56:16.670Z,23.40
2018-11-10T21:58:45.250Z,23.40
2018-11-10T22:01:13.928Z,23.40
2018-11-10T22:03:42.413Z,23.40
2018-11-10T22:06:10.982Z,23.40
2018-11-10T22:08:40.887Z,23.40
2018-11-10T22:11:09.373Z,23.40
2018-11-10T22:13:38.213Z,23.40
2018-11-10T22:16:06.694Z,23.40
2018-11-10T22:18:35.197Z,23.40
2018-11-10T22:21:03.650Z,23.40
2018-11-10T22:23:32.197Z,23.40
2018-11-10T22:26:00.665Z,23.40
2018-11-10T22:28:29.200Z,23.40
2018-11-10T22:30:57.602Z,23.40
2018-11-10T22:33:28.877Z,23.40
2018-11-10T22:35:57.349Z,23.40
2018-11-10T22:38:26.241Z,23.40
2018-11-10T22:40:55.715Z,23.40
2018-11-10T22:43:26.269Z,23.40
2018-11-10T22:45:54.825Z,23.30
2018-11-10T22:48:23.465Z,23.40
2018-11-10T22:50:51.878Z,23.30
2018-11-10T22:53:20.300Z,23.30
2018-11-10T22:55:48.776Z,23.30
2018-11-10T22:58:18.195Z,23.30
2018-11-10T23:00:52.199Z,23.30
2018-11-10T23:03:20.712Z,23.20
2018-11-10T23:05:49.131Z,23.20
2018-11-10T23:08:19.008Z,23.20
2018-11-10T23:10:47.484Z,23.20
2018-11-10T23:13:15.893Z,23.10
2018-11-10T23:15:44.697Z,23.10
2018-11-10T23:18:13.717Z,23.10
2018-11-10T23:20:42.185Z,23.00
2018-11-10T23:23:10.679Z,23.00
2018-11-10T23:25:40.061Z,23.00
2018-11-10T23:28:09.009Z,22.90
2018-11-10T23:30:37.435Z,22.90
2018-11-10T23:33:05.863Z,23.00
2018-11-10T23:35:34.397Z,22.90
2018-11-10T23:38:03.088Z,22.90
2018-11-10T23:40:31.503Z,22.90
2018-11-10T23:43:00.124Z,22.80
2018-11-10T23:45:28.968Z,22.80
2018-11-10T23:47:57.742Z,22.80
2018-11-10T23:50:26.254Z,22.70
2018-11-10T23:52:54.683Z,22.70
2018-11-10T23:55:23.069Z,22.70
2018-11-10T23:57:51.679Z,22.70
